sensor_id;sensor_type;location;lat;lon;timestamp;P1;durP1;ratioP1;P2;durP2;ratioP2
27303;SDS011;14791;52.392;13.092;2023-04-29T00:01:04;4.03;;;3.92;;
27303;SDS011;14791;52.392;13.092;2023-04-29T00:03:33;4.62;;;4.42;;
27303;SDS011;14791;52.392;13.092;2023-04-29T00:06:02;4.60;;;4.50;;
27303;SDS011;14791;52.392;13.092;2023-04-29T00:08:31;3.87;;;3.77;;
27303;SDS011;14791;52.392;13.092;2023-04-29T00:11:00;4.00;;;3.80;;
27303;SDS011;14791;52.392;13.092;2023-04-29T00:13:29;3.83;;;3.67;;
27303;SDS011;14791;52.392;13.092;2023-04-29T00:15:58;4.55;;;4.35;;
27303;SDS011;14791;52.392;13.092;2023-04-29T00:18:27;4.65;;;4.45;;
27303;SDS011;14791;52.392;13.092;2023-04-29T00:20:56;4.25;;;4.05;;
27303;SDS011;14791;52.392;13.092;2023-04-29T00:23:25;3.55;;;3.45;;
27303;SDS011;14791;52.392;13.092;2023-04-29T00:25:54;4.97;;;4.75;;
27303;SDS011;14791;52.392;13.092;2023-04-29T00:28:23;4.20;;;3.92;;
27303;SDS011;14791;52.392;13.092;2023-04-29T00:30:52;4.47;;;4.37;;
27303;SDS011;14791;52.392;13.092;2023-04-29T00:33:22;4.40;;;4.20;;
27303;SDS011;14791;52.392;13.092;2023-04-29T00:35:51;4.62;;;4.33;;
27303;SDS011;14791;52.392;13.092;2023-04-29T00:38:20;5.17;;;5.03;;
27303;SDS011;14791;52.392;13.092;2023-04-29T00:40:49;4.55;;;4.40;;
27303;SDS011;14791;52.392;13.092;2023-04-29T00:43:18;4.80;;;4.60;;
27303;SDS011;14791;52.392;13.092;2023-04-29T00:45:47;4.10;;;3.90;;
27303;SDS011;14791;52.392;13.092;2023-04-29T00:48:17;3.93;;;3.80;;
27303;SDS011;14791;52.392;13.092;2023-04-29T00:50:45;4.25;;;4.15;;
27303;SDS011;14791;52.392;13.092;2023-04-29T00:53:14;3.95;;;3.67;;
27303;SDS011;14791;52.392;13.092;2023-04-29T00:55:43;4.53;;;4.33;;
27303;SDS011;14791;52.392;13.092;2023-04-29T00:58:15;3.87;;;3.77;;
27303;SDS011;14791;52.392;13.092;2023-04-29T01:00:46;3.98;;;3.77;;
27303;SDS011;14791;52.392;13.092;2023-04-29T01:03:15;4.22;;;3.95;;
27303;SDS011;14791;52.392;13.092;2023-04-29T01:05:46;3.90;;;3.80;;
27303;SDS011;14791;52.392;13.092;2023-04-29T01:08:31;4.22;;;4.03;;
27303;SDS011;14791;52.392;13.092;2023-04-29T01:11:08;4.15;;;4.05;;
27303;SDS011;14791;52.392;13.092;2023-04-29T01:13:48;4.63;;;4.33;;
27303;SDS011;14791;52.392;13.092;2023-04-29T01:16:20;5.15;;;4.95;;
27303;SDS011;14791;52.392;13.092;2023-04-29T01:18:57;4.35;;;4.25;;
27303;SDS011;14791;52.392;13.092;2023-04-29T01:21:30;4.28;;;4.12;;
27303;SDS011;14791;52.392;13.092;2023-04-29T01:24:00;4.87;;;4.67;;
27303;SDS011;14791;52.392;13.092;2023-04-29T01:26:31;4.50;;;4.30;;
27303;SDS011;14791;52.392;13.092;2023-04-29T01:29:09;3.98;;;3.65;;
27303;SDS011;14791;52.392;13.092;2023-04-29T01:31:43;3.90;;;3.80;;
27303;SDS011;14791;52.392;13.092;2023-04-29T01:34:22;4.37;;;4.17;;
27303;SDS011;14791;52.392;13.092;2023-04-29T01:37:03;4.67;;;4.53;;
27303;SDS011;14791;52.392;13.092;2023-04-29T01:42:18;4.27;;;4.17;;
27303;SDS011;14791;52.392;13.092;2023-04-29T01:44:54;4.78;;;4.47;;
27303;SDS011;14791;52.392;13.092;2023-04-29T01:47:26;4.70;;;4.50;;
27303;SDS011;14791;52.392;13.092;2023-04-29T01:49:57;4.40;;;4.20;;
27303;SDS011;14791;52.392;13.092;2023-04-29T01:52:28;4.42;;;4.22;;
27303;SDS011;14791;52.392;13.092;2023-04-29T01:54:58;5.23;;;4.83;;
27303;SDS011;14791;52.392;13.092;2023-04-29T01:57:29;3.62;;;3.52;;
27303;SDS011;14791;52.392;13.092;2023-04-29T02:00:08;4.00;;;3.90;;
27303;SDS011;14791;52.392;13.092;2023-04-29T02:02:39;3.27;;;3.17;;
27303;SDS011;14791;52.392;13.092;2023-04-29T02:05:10;4.75;;;4.60;;
27303;SDS011;14791;52.392;13.092;2023-04-29T02:07:40;3.90;;;3.80;;
27303;SDS011;14791;52.392;13.092;2023-04-29T02:10:10;3.60;;;3.50;;
27303;SDS011;14791;52.392;13.092;2023-04-29T02:12:40;3.90;;;3.75;;
27303;SDS011;14791;52.392;13.092;2023-04-29T02:15:09;4.60;;;4.50;;
27303;SDS011;14791;52.392;13.092;2023-04-29T02:17:38;4.70;;;4.60;;
27303;SDS011;14791;52.392;13.092;2023-04-29T02:20:07;4.50;;;4.40;;
27303;SDS011;14791;52.392;13.092;2023-04-29T02:22:36;4.08;;;3.98;;
27303;SDS011;14791;52.392;13.092;2023-04-29T02:25:06;4.90;;;4.67;;
27303;SDS011;14791;52.392;13.092;2023-04-29T02:27:35;5.20;;;4.90;;
27303;SDS011;14791;52.392;13.092;2023-04-29T02:30:05;5.33;;;5.12;;
27303;SDS011;14791;52.392;13.092;2023-04-29T02:32:34;5.20;;;4.90;;
27303;SDS011;14791;52.392;13.092;2023-04-29T02:35:05;5.10;;;4.90;;
27303;SDS011;14791;52.392;13.092;2023-04-29T02:37:35;4.37;;;4.17;;
27303;SDS011;14791;52.392;13.092;2023-04-29T02:40:04;5.37;;;4.97;;
27303;SDS011;14791;52.392;13.092;2023-04-29T02:42:33;4.15;;;4.05;;
27303;SDS011;14791;52.392;13.092;2023-04-29T02:45:02;5.70;;;5.40;;
27303;SDS011;14791;52.392;13.092;2023-04-29T02:47:32;5.40;;;5.20;;
27303;SDS011;14791;52.392;13.092;2023-04-29T02:50:00;6.67;;;6.37;;
27303;SDS011;14791;52.392;13.092;2023-04-29T02:52:31;6.57;;;6.17;;
27303;SDS011;14791;52.392;13.092;2023-04-29T02:55:00;6.00;;;5.80;;
27303;SDS011;14791;52.392;13.092;2023-04-29T02:57:29;6.78;;;6.47;;
27303;SDS011;14791;52.392;13.092;2023-04-29T02:59:58;6.87;;;6.57;;
27303;SDS011;14791;52.392;13.092;2023-04-29T03:02:28;7.37;;;7.12;;
27303;SDS011;14791;52.392;13.092;2023-04-29T03:04:57;7.35;;;6.92;;
27303;SDS011;14791;52.392;13.092;2023-04-29T03:07:26;7.08;;;6.78;;
27303;SDS011;14791;52.392;13.092;2023-04-29T03:09:56;7.37;;;6.75;;
27303;SDS011;14791;52.392;13.092;2023-04-29T03:12:25;6.73;;;6.47;;
27303;SDS011;14791;52.392;13.092;2023-04-29T03:14:54;7.97;;;7.47;;
27303;SDS011;14791;52.392;13.092;2023-04-29T03:17:23;7.47;;;7.17;;
27303;SDS011;14791;52.392;13.092;2023-04-29T03:19:52;8.15;;;7.65;;
27303;SDS011;14791;52.392;13.092;2023-04-29T03:22:21;7.80;;;7.47;;
27303;SDS011;14791;52.392;13.092;2023-04-29T03:24:50;7.83;;;7.53;;
27303;SDS011;14791;52.392;13.092;2023-04-29T03:27:20;8.60;;;8.00;;
27303;SDS011;14791;52.392;13.092;2023-04-29T03:29:49;8.60;;;8.20;;
27303;SDS011;14791;52.392;13.092;2023-04-29T03:32:18;8.70;;;8.30;;
27303;SDS011;14791;52.392;13.092;2023-04-29T03:34:47;8.73;;;8.23;;
27303;SDS011;14791;52.392;13.092;2023-04-29T03:37:24;8.65;;;8.25;;
27303;SDS011;14791;52.392;13.092;2023-04-29T03:39:55;8.33;;;7.93;;
27303;SDS011;14791;52.392;13.092;2023-04-29T03:42:24;7.63;;;7.33;;
27303;SDS011;14791;52.392;13.092;2023-04-29T03:44:52;9.17;;;8.70;;
27303;SDS011;14791;52.392;13.092;2023-04-29T03:47:21;8.53;;;8.10;;
27303;SDS011;14791;52.392;13.092;2023-04-29T03:49:50;9.18;;;8.68;;
27303;SDS011;14791;52.392;13.092;2023-04-29T03:52:19;9.53;;;9.10;;
27303;SDS011;14791;52.392;13.092;2023-04-29T03:54:49;8.80;;;8.40;;
27303;SDS011;14791;52.392;13.092;2023-04-29T03:57:18;9.47;;;8.97;;
27303;SDS011;14791;52.392;13.092;2023-04-29T03:59:48;9.10;;;8.70;;
27303;SDS011;14791;52.392;13.092;2023-04-29T04:02:17;9.10;;;8.53;;
27303;SDS011;14791;52.392;13.092;2023-04-29T04:04:46;10.07;;;9.47;;
27303;SDS011;14791;52.392;13.092;2023-04-29T04:07:15;8.48;;;8.08;;
27303;SDS011;14791;52.392;13.092;2023-04-29T04:09:46;9.13;;;8.73;;
27303;SDS011;14791;52.392;13.092;2023-04-29T04:12:15;9.73;;;9.13;;
27303;SDS011;14791;52.392;13.092;2023-04-29T04:14:44;9.10;;;8.63;;
27303;SDS011;14791;52.392;13.092;2023-04-29T04:17:13;9.83;;;9.30;;
27303;SDS011;14791;52.392;13.092;2023-04-29T04:19:42;10.00;;;9.43;;
27303;SDS011;14791;52.392;13.092;2023-04-29T04:22:10;9.73;;;9.23;;
27303;SDS011;14791;52.392;13.092;2023-04-29T04:24:41;9.75;;;9.15;;
27303;SDS011;14791;52.392;13.092;2023-04-29T04:27:10;9.90;;;9.30;;
27303;SDS011;14791;52.392;13.092;2023-04-29T04:29:41;10.95;;;9.83;;
27303;SDS011;14791;52.392;13.092;2023-04-29T04:32:11;9.20;;;8.70;;
27303;SDS011;14791;52.392;13.092;2023-04-29T04:34:40;10.28;;;9.60;;
27303;SDS011;14791;52.392;13.092;2023-04-29T04:37:09;10.37;;;9.77;;
27303;SDS011;14791;52.392;13.092;2023-04-29T04:39:38;9.87;;;9.37;;
27303;SDS011;14791;52.392;13.092;2023-04-29T04:42:09;10.87;;;10.27;;
27303;SDS011;14791;52.392;13.092;2023-04-29T04:44:38;10.30;;;9.70;;
27303;SDS011;14791;52.392;13.092;2023-04-29T04:47:09;10.30;;;9.70;;
27303;SDS011;14791;52.392;13.092;2023-04-29T04:49:42;9.47;;;8.97;;
27303;SDS011;14791;52.392;13.092;2023-04-29T04:52:11;10.32;;;9.68;;
27303;SDS011;14791;52.392;13.092;2023-04-29T04:54:43;10.13;;;9.53;;
27303;SDS011;14791;52.392;13.092;2023-04-29T04:57:14;9.90;;;9.20;;
27303;SDS011;14791;52.392;13.092;2023-04-29T04:59:44;9.97;;;9.47;;
27303;SDS011;14791;52.392;13.092;2023-04-29T05:02:13;10.53;;;9.87;;
27303;SDS011;14791;52.392;13.092;2023-04-29T05:04:42;10.23;;;9.63;;
27303;SDS011;14791;52.392;13.092;2023-04-29T05:07:13;9.53;;;8.98;;
27303;SDS011;14791;52.392;13.092;2023-04-29T05:09:43;11.23;;;10.53;;
27303;SDS011;14791;52.392;13.092;2023-04-29T05:12:12;10.70;;;10.05;;
27303;SDS011;14791;52.392;13.092;2023-04-29T05:14:42;10.13;;;9.57;;
27303;SDS011;14791;52.392;13.092;2023-04-29T05:17:11;10.23;;;9.53;;
27303;SDS011;14791;52.392;13.092;2023-04-29T05:19:40;11.07;;;10.37;;
27303;SDS011;14791;52.392;13.092;2023-04-29T05:22:09;10.43;;;9.83;;
27303;SDS011;14791;52.392;13.092;2023-04-29T05:24:40;10.40;;;9.83;;
27303;SDS011;14791;52.392;13.092;2023-04-29T05:27:09;9.38;;;8.78;;
27303;SDS011;14791;52.392;13.092;2023-04-29T05:29:38;9.73;;;9.23;;
27303;SDS011;14791;52.392;13.092;2023-04-29T05:32:07;9.87;;;9.27;;
27303;SDS011;14791;52.392;13.092;2023-04-29T05:34:36;10.53;;;9.83;;
27303;SDS011;14791;52.392;13.092;2023-04-29T05:37:05;10.40;;;9.80;;
27303;SDS011;14791;52.392;13.092;2023-04-29T05:39:36;9.67;;;9.17;;
27303;SDS011;14791;52.392;13.092;2023-04-29T05:42:06;10.58;;;9.90;;
27303;SDS011;14791;52.392;13.092;2023-04-29T05:44:37;10.50;;;9.90;;
27303;SDS011;14791;52.392;13.092;2023-04-29T05:47:06;10.77;;;10.17;;
27303;SDS011;14791;52.392;13.092;2023-04-29T05:49:35;10.20;;;9.60;;
27303;SDS011;14791;52.392;13.092;2023-04-29T05:52:04;10.17;;;9.57;;
27303;SDS011;14791;52.392;13.092;2023-04-29T05:54:34;9.88;;;9.38;;
27303;SDS011;14791;52.392;13.092;2023-04-29T05:57:04;9.33;;;8.73;;
27303;SDS011;14791;52.392;13.092;2023-04-29T05:59:33;9.55;;;8.98;;
27303;SDS011;14791;52.392;13.092;2023-04-29T06:02:04;10.08;;;9.48;;
27303;SDS011;14791;52.392;13.092;2023-04-29T06:04:34;10.38;;;9.78;;
27303;SDS011;14791;52.392;13.092;2023-04-29T06:07:05;9.20;;;8.70;;
27303;SDS011;14791;52.392;13.092;2023-04-29T06:09:40;9.90;;;9.40;;
27303;SDS011;14791;52.392;13.092;2023-04-29T06:12:09;9.80;;;9.20;;
27303;SDS011;14791;52.392;13.092;2023-04-29T06:14:40;9.13;;;8.67;;
27303;SDS011;14791;52.392;13.092;2023-04-29T06:17:09;10.05;;;9.45;;
27303;SDS011;14791;52.392;13.092;2023-04-29T06:19:39;9.63;;;9.13;;
27303;SDS011;14791;52.392;13.092;2023-04-29T06:22:09;9.47;;;8.97;;
27303;SDS011;14791;52.392;13.092;2023-04-29T06:24:40;9.35;;;8.85;;
27303;SDS011;14791;52.392;13.092;2023-04-29T06:27:10;9.10;;;8.60;;
27303;SDS011;14791;52.392;13.092;2023-04-29T06:29:39;9.93;;;9.20;;
27303;SDS011;14791;52.392;13.092;2023-04-29T06:32:08;8.88;;;8.38;;
27303;SDS011;14791;52.392;13.092;2023-04-29T06:34:39;8.38;;;7.87;;
27303;SDS011;14791;52.392;13.092;2023-04-29T06:37:10;8.45;;;7.97;;
27303;SDS011;14791;52.392;13.092;2023-04-29T06:39:41;8.83;;;8.43;;
27303;SDS011;14791;52.392;13.092;2023-04-29T06:42:20;8.58;;;8.03;;
27303;SDS011;14791;52.392;13.092;2023-04-29T06:45:06;8.03;;;7.62;;
27303;SDS011;14791;52.392;13.092;2023-04-29T06:47:37;7.78;;;7.33;;
27303;SDS011;14791;52.392;13.092;2023-04-29T06:50:14;8.38;;;7.87;;
27303;SDS011;14791;52.392;13.092;2023-04-29T06:52:43;8.07;;;7.67;;
27303;SDS011;14791;52.392;13.092;2023-04-29T06:55:12;8.00;;;7.57;;
27303;SDS011;14791;52.392;13.092;2023-04-29T06:57:42;8.10;;;7.70;;
27303;SDS011;14791;52.392;13.092;2023-04-29T07:00:13;8.30;;;7.90;;
27303;SDS011;14791;52.392;13.092;2023-04-29T07:02:42;8.77;;;8.27;;
27303;SDS011;14791;52.392;13.092;2023-04-29T07:05:11;8.83;;;8.23;;
27303;SDS011;14791;52.392;13.092;2023-04-29T07:07:42;9.05;;;8.45;;
27303;SDS011;14791;52.392;13.092;2023-04-29T07:10:11;9.67;;;9.07;;
27303;SDS011;14791;52.392;13.092;2023-04-29T07:12:39;10.35;;;9.65;;
27303;SDS011;14791;52.392;13.092;2023-04-29T07:15:08;10.23;;;9.53;;
27303;SDS011;14791;52.392;13.092;2023-04-29T07:17:37;10.48;;;9.78;;
27303;SDS011;14791;52.392;13.092;2023-04-29T07:20:07;9.08;;;8.48;;
27303;SDS011;14791;52.392;13.092;2023-04-29T07:22:37;9.67;;;8.97;;
27303;SDS011;14791;52.392;13.092;2023-04-29T07:25:06;9.40;;;8.77;;
27303;SDS011;14791;52.392;13.092;2023-04-29T07:27:37;9.43;;;8.73;;
27303;SDS011;14791;52.392;13.092;2023-04-29T07:30:07;9.67;;;8.97;;
27303;SDS011;14791;52.392;13.092;2023-04-29T07:32:36;8.85;;;8.25;;
27303;SDS011;14791;52.392;13.092;2023-04-29T07:35:05;9.60;;;8.80;;
27303;SDS011;14791;52.392;13.092;2023-04-29T07:37:35;9.70;;;9.00;;
27303;SDS011;14791;52.392;13.092;2023-04-29T07:40:05;9.00;;;8.30;;
27303;SDS011;14791;52.392;13.092;2023-04-29T07:42:34;9.30;;;8.53;;
27303;SDS011;14791;52.392;13.092;2023-04-29T07:45:05;8.90;;;8.33;;
27303;SDS011;14791;52.392;13.092;2023-04-29T07:47:34;9.38;;;8.78;;
27303;SDS011;14791;52.392;13.092;2023-04-29T07:50:04;9.78;;;9.08;;
27303;SDS011;14791;52.392;13.092;2023-04-29T07:52:33;9.93;;;9.10;;
27303;SDS011;14791;52.392;13.092;2023-04-29T07:55:02;8.67;;;8.17;;
27303;SDS011;14791;52.392;13.092;2023-04-29T07:57:31;8.00;;;7.53;;
27303;SDS011;14791;52.392;13.092;2023-04-29T08:00:01;8.00;;;7.50;;
27303;SDS011;14791;52.392;13.092;2023-04-29T08:02:31;8.45;;;7.95;;
27303;SDS011;14791;52.392;13.092;2023-04-29T08:05:02;8.53;;;8.00;;
27303;SDS011;14791;52.392;13.092;2023-04-29T08:07:31;9.05;;;8.53;;
27303;SDS011;14791;52.392;13.092;2023-04-29T08:10:00;7.83;;;7.40;;
27303;SDS011;14791;52.392;13.092;2023-04-29T08:12:29;7.53;;;7.05;;
27303;SDS011;14791;52.392;13.092;2023-04-29T08:15:00;8.95;;;8.35;;
27303;SDS011;14791;52.392;13.092;2023-04-29T08:17:29;7.97;;;7.42;;
27303;SDS011;14791;52.392;13.092;2023-04-29T08:19:58;8.95;;;8.35;;
27303;SDS011;14791;52.392;13.092;2023-04-29T08:22:27;8.80;;;8.23;;
27303;SDS011;14791;52.392;13.092;2023-04-29T08:24:56;8.40;;;7.90;;
27303;SDS011;14791;52.392;13.092;2023-04-29T08:27:25;9.70;;;8.93;;
27303;SDS011;14791;52.392;13.092;2023-04-29T08:29:54;9.03;;;8.47;;
27303;SDS011;14791;52.392;13.092;2023-04-29T08:32:23;8.43;;;7.83;;
27303;SDS011;14791;52.392;13.092;2023-04-29T08:34:52;8.78;;;8.28;;
27303;SDS011;14791;52.392;13.092;2023-04-29T08:37:22;8.77;;;8.27;;
27303;SDS011;14791;52.392;13.092;2023-04-29T08:39:51;9.30;;;8.70;;
27303;SDS011;14791;52.392;13.092;2023-04-29T08:42:20;9.68;;;8.85;;
27303;SDS011;14791;52.392;13.092;2023-04-29T08:44:51;10.03;;;9.23;;
27303;SDS011;14791;52.392;13.092;2023-04-29T08:47:21;9.43;;;8.68;;
27303;SDS011;14791;52.392;13.092;2023-04-29T08:49:50;10.03;;;9.33;;
27303;SDS011;14791;52.392;13.092;2023-04-29T08:52:20;10.17;;;9.47;;
27303;SDS011;14791;52.392;13.092;2023-04-29T08:54:49;9.60;;;8.83;;
27303;SDS011;14791;52.392;13.092;2023-04-29T08:57:19;9.05;;;8.35;;
27303;SDS011;14791;52.392;13.092;2023-04-29T08:59:49;10.13;;;9.28;;
27303;SDS011;14791;52.392;13.092;2023-04-29T09:02:18;10.60;;;9.90;;
27303;SDS011;14791;52.392;13.092;2023-04-29T09:04:54;12.00;;;11.07;;
27303;SDS011;14791;52.392;13.092;2023-04-29T09:07:34;10.78;;;9.88;;
27303;SDS011;14791;52.392;13.092;2023-04-29T09:10:03;11.68;;;10.60;;
27303;SDS011;14791;52.392;13.092;2023-04-29T09:12:32;11.37;;;10.37;;
27303;SDS011;14791;52.392;13.092;2023-04-29T09:15:02;11.37;;;10.47;;
27303;SDS011;14791;52.392;13.092;2023-04-29T09:17:41;11.18;;;10.18;;
27303;SDS011;14791;52.392;13.092;2023-04-29T09:22:54;11.17;;;10.33;;
27303;SDS011;14791;52.392;13.092;2023-04-29T09:25:25;9.60;;;8.97;;
27303;SDS011;14791;52.392;13.092;2023-04-29T09:27:54;11.00;;;10.23;;
27303;SDS011;14791;52.392;13.092;2023-04-29T09:30:24;11.13;;;10.23;;
27303;SDS011;14791;52.392;13.092;2023-04-29T09:33:12;10.40;;;9.70;;
27303;SDS011;14791;52.392;13.092;2023-04-29T09:35:33;10.67;;;9.97;;
27303;SDS011;14791;52.392;13.092;2023-04-29T09:38:10;10.43;;;9.73;;
27303;SDS011;14791;52.392;13.092;2023-04-29T09:40:40;9.80;;;9.13;;
27303;SDS011;14791;52.392;13.092;2023-04-29T09:43:11;11.17;;;10.47;;
27303;SDS011;14791;52.392;13.092;2023-04-29T09:45:42;10.93;;;10.13;;
27303;SDS011;14791;52.392;13.092;2023-04-29T09:48:13;10.90;;;10.20;;
27303;SDS011;14791;52.392;13.092;2023-04-29T09:50:43;10.83;;;10.13;;
27303;SDS011;14791;52.392;13.092;2023-04-29T09:53:26;11.67;;;10.83;;
27303;SDS011;14791;52.392;13.092;2023-04-29T09:58:30;10.70;;;9.97;;
27303;SDS011;14791;52.392;13.092;2023-04-29T10:01:06;11.00;;;10.30;;
27303;SDS011;14791;52.392;13.092;2023-04-29T10:03:36;10.47;;;9.73;;
27303;SDS011;14791;52.392;13.092;2023-04-29T10:06:06;10.37;;;9.67;;
27303;SDS011;14791;52.392;13.092;2023-04-29T10:08:35;9.85;;;9.18;;
27303;SDS011;14791;52.392;13.092;2023-04-29T10:11:07;10.88;;;10.15;;
27303;SDS011;14791;52.392;13.092;2023-04-29T10:13:38;11.83;;;10.78;;
27303;SDS011;14791;52.392;13.092;2023-04-29T10:16:13;12.40;;;11.33;;
27303;SDS011;14791;52.392;13.092;2023-04-29T10:18:58;11.13;;;10.27;;
27303;SDS011;14791;52.392;13.092;2023-04-29T10:21:30;12.68;;;11.57;;
27303;SDS011;14791;52.392;13.092;2023-04-29T10:23:59;11.97;;;11.07;;
27303;SDS011;14791;52.392;13.092;2023-04-29T10:26:30;13.00;;;11.40;;
27303;SDS011;14791;52.392;13.092;2023-04-29T10:29:02;13.88;;;12.70;;
27303;SDS011;14791;52.392;13.092;2023-04-29T10:31:34;13.32;;;12.13;;
27303;SDS011;14791;52.392;13.092;2023-04-29T10:34:05;14.05;;;12.68;;
27303;SDS011;14791;52.392;13.092;2023-04-29T10:36:34;12.07;;;11.05;;
27303;SDS011;14791;52.392;13.092;2023-04-29T10:39:05;13.73;;;12.53;;
27303;SDS011;14791;52.392;13.092;2023-04-29T10:41:41;13.43;;;12.23;;
27303;SDS011;14791;52.392;13.092;2023-04-29T10:44:13;12.77;;;11.87;;
27303;SDS011;14791;52.392;13.092;2023-04-29T10:46:43;13.80;;;12.60;;
27303;SDS011;14791;52.392;13.092;2023-04-29T10:49:12;13.63;;;12.63;;
27303;SDS011;14791;52.392;13.092;2023-04-29T10:51:41;12.90;;;11.87;;
27303;SDS011;14791;52.392;13.092;2023-04-29T10:54:14;12.13;;;11.33;;
27303;SDS011;14791;52.392;13.092;2023-04-29T10:56:50;11.90;;;10.90;;
27303;SDS011;14791;52.392;13.092;2023-04-29T10:59:21;13.00;;;12.20;;
27303;SDS011;14791;52.392;13.092;2023-04-29T11:01:51;13.65;;;12.65;;
27303;SDS011;14791;52.392;13.092;2023-04-29T11:04:21;13.28;;;12.28;;
27303;SDS011;14791;52.392;13.092;2023-04-29T11:06:51;13.15;;;12.15;;
27303;SDS011;14791;52.392;13.092;2023-04-29T11:09:25;12.23;;;11.38;;
27303;SDS011;14791;52.392;13.092;2023-04-29T11:11:56;11.87;;;11.03;;
27303;SDS011;14791;52.392;13.092;2023-04-29T11:14:36;12.30;;;11.43;;
27303;SDS011;14791;52.392;13.092;2023-04-29T11:17:13;11.40;;;10.70;;
27303;SDS011;14791;52.392;13.092;2023-04-29T11:19:48;11.33;;;10.63;;
27303;SDS011;14791;52.392;13.092;2023-04-29T11:24:58;11.10;;;10.40;;
27303;SDS011;14791;52.392;13.092;2023-04-29T11:27:37;11.20;;;10.58;;
27303;SDS011;14791;52.392;13.092;2023-04-29T11:30:08;11.12;;;10.43;;
27303;SDS011;14791;52.392;13.092;2023-04-29T11:32:39;10.35;;;9.75;;
27303;SDS011;14791;52.392;13.092;2023-04-29T11:35:09;10.72;;;10.03;;
27303;SDS011;14791;52.392;13.092;2023-04-29T11:37:40;9.30;;;8.85;;
27303;SDS011;14791;52.392;13.092;2023-04-29T11:40:11;10.38;;;9.73;;
27303;SDS011;14791;52.392;13.092;2023-04-29T11:42:45;10.20;;;9.53;;
27303;SDS011;14791;52.392;13.092;2023-04-29T11:45:18;9.23;;;8.73;;
27303;SDS011;14791;52.392;13.092;2023-04-29T11:47:47;9.25;;;8.73;;
27303;SDS011;14791;52.392;13.092;2023-04-29T11:50:17;9.13;;;8.53;;
27303;SDS011;14791;52.392;13.092;2023-04-29T11:52:46;8.78;;;8.28;;
27303;SDS011;14791;52.392;13.092;2023-04-29T11:55:16;8.68;;;8.13;;
27303;SDS011;14791;52.392;13.092;2023-04-29T11:57:48;9.30;;;8.80;;
27303;SDS011;14791;52.392;13.092;2023-04-29T12:00:18;8.88;;;8.33;;
27303;SDS011;14791;52.392;13.092;2023-04-29T12:02:47;8.83;;;8.33;;
27303;SDS011;14791;52.392;13.092;2023-04-29T12:05:16;9.30;;;8.80;;
27303;SDS011;14791;52.392;13.092;2023-04-29T12:07:45;9.78;;;9.18;;
27303;SDS011;14791;52.392;13.092;2023-04-29T12:10:15;8.55;;;8.00;;
27303;SDS011;14791;52.392;13.092;2023-04-29T12:12:44;8.78;;;8.28;;
27303;SDS011;14791;52.392;13.092;2023-04-29T12:15:13;9.70;;;9.10;;
27303;SDS011;14791;52.392;13.092;2023-04-29T12:17:42;9.28;;;8.40;;
27303;SDS011;14791;52.392;13.092;2023-04-29T12:20:13;9.05;;;8.55;;
27303;SDS011;14791;52.392;13.092;2023-04-29T12:22:42;7.92;;;7.53;;
27303;SDS011;14791;52.392;13.092;2023-04-29T12:25:11;8.70;;;8.20;;
27303;SDS011;14791;52.392;13.092;2023-04-29T12:27:40;7.75;;;7.35;;
27303;SDS011;14791;52.392;13.092;2023-04-29T12:30:10;7.17;;;6.67;;
27303;SDS011;14791;52.392;13.092;2023-04-29T12:32:39;7.12;;;6.75;;
27303;SDS011;14791;52.392;13.092;2023-04-29T12:35:14;6.03;;;5.83;;
27303;SDS011;14791;52.392;13.092;2023-04-29T12:37:48;5.40;;;5.10;;
27303;SDS011;14791;52.392;13.092;2023-04-29T12:40:18;5.72;;;5.42;;
27303;SDS011;14791;52.392;13.092;2023-04-29T12:42:47;4.95;;;4.85;;
27303;SDS011;14791;52.392;13.092;2023-04-29T12:45:25;5.87;;;5.58;;
27303;SDS011;14791;52.392;13.092;2023-04-29T12:47:56;5.08;;;4.87;;
27303;SDS011;14791;52.392;13.092;2023-04-29T12:50:34;5.58;;;5.37;;
27303;SDS011;14791;52.392;13.092;2023-04-29T12:53:04;5.37;;;5.17;;
27303;SDS011;14791;52.392;13.092;2023-04-29T12:55:36;4.97;;;4.72;;
27303;SDS011;14791;52.392;13.092;2023-04-29T12:58:06;5.08;;;4.87;;
27303;SDS011;14791;52.392;13.092;2023-04-29T13:00:35;4.45;;;4.28;;
27303;SDS011;14791;52.392;13.092;2023-04-29T13:03:04;4.05;;;3.95;;
27303;SDS011;14791;52.392;13.092;2023-04-29T13:05:33;3.87;;;3.77;;
27303;SDS011;14791;52.392;13.092;2023-04-29T13:08:02;3.42;;;3.33;;
27303;SDS011;14791;52.392;13.092;2023-04-29T13:10:35;3.42;;;3.33;;
27303;SDS011;14791;52.392;13.092;2023-04-29T13:13:04;3.00;;;2.90;;
27303;SDS011;14791;52.392;13.092;2023-04-29T13:15:34;3.62;;;3.52;;
27303;SDS011;14791;52.392;13.092;2023-04-29T13:18:05;3.33;;;3.12;;
27303;SDS011;14791;52.392;13.092;2023-04-29T13:20:34;2.90;;;2.80;;
27303;SDS011;14791;52.392;13.092;2023-04-29T13:23:03;3.47;;;3.37;;
27303;SDS011;14791;52.392;13.092;2023-04-29T13:25:32;3.42;;;3.33;;
27303;SDS011;14791;52.392;13.092;2023-04-29T13:28:01;3.50;;;3.40;;
27303;SDS011;14791;52.392;13.092;2023-04-29T13:30:32;3.65;;;3.45;;
27303;SDS011;14791;52.392;13.092;2023-04-29T13:33:01;3.58;;;3.47;;
27303;SDS011;14791;52.392;13.092;2023-04-29T13:35:29;3.60;;;3.47;;
27303;SDS011;14791;52.392;13.092;2023-04-29T13:38:00;4.55;;;4.28;;
27303;SDS011;14791;52.392;13.092;2023-04-29T13:40:29;4.12;;;4.03;;
27303;SDS011;14791;52.392;13.092;2023-04-29T13:42:58;5.20;;;5.00;;
27303;SDS011;14791;52.392;13.092;2023-04-29T13:45:27;4.40;;;4.30;;
27303;SDS011;14791;52.392;13.092;2023-04-29T13:47:56;3.98;;;3.87;;
27303;SDS011;14791;52.392;13.092;2023-04-29T13:50:25;4.05;;;3.95;;
27303;SDS011;14791;52.392;13.092;2023-04-29T13:52:54;3.87;;;3.75;;
27303;SDS011;14791;52.392;13.092;2023-04-29T13:55:23;4.30;;;4.10;;
27303;SDS011;14791;52.392;13.092;2023-04-29T13:57:52;3.67;;;3.58;;
27303;SDS011;14791;52.392;13.092;2023-04-29T14:00:21;3.40;;;3.30;;
27303;SDS011;14791;52.392;13.092;2023-04-29T14:02:50;3.65;;;3.55;;
27303;SDS011;14791;52.392;13.092;2023-04-29T14:05:19;3.90;;;3.80;;
27303;SDS011;14791;52.392;13.092;2023-04-29T14:07:48;3.80;;;3.70;;
27303;SDS011;14791;52.392;13.092;2023-04-29T14:10:18;3.98;;;3.70;;
27303;SDS011;14791;52.392;13.092;2023-04-29T14:12:47;3.80;;;3.70;;
27303;SDS011;14791;52.392;13.092;2023-04-29T14:15:16;4.05;;;3.85;;
27303;SDS011;14791;52.392;13.092;2023-04-29T14:17:44;3.83;;;3.55;;
27303;SDS011;14791;52.392;13.092;2023-04-29T14:20:15;3.75;;;3.55;;
27303;SDS011;14791;52.392;13.092;2023-04-29T14:22:44;4.17;;;3.98;;
27303;SDS011;14791;52.392;13.092;2023-04-29T14:25:13;3.52;;;3.42;;
27303;SDS011;14791;52.392;13.092;2023-04-29T14:27:42;3.85;;;3.65;;
27303;SDS011;14791;52.392;13.092;2023-04-29T14:30:11;3.05;;;2.95;;
27303;SDS011;14791;52.392;13.092;2023-04-29T14:32:40;3.25;;;3.15;;
27303;SDS011;14791;52.392;13.092;2023-04-29T14:35:09;3.72;;;3.55;;
27303;SDS011;14791;52.392;13.092;2023-04-29T14:37:38;3.33;;;3.12;;
27303;SDS011;14791;52.392;13.092;2023-04-29T14:40:07;3.08;;;2.98;;
27303;SDS011;14791;52.392;13.092;2023-04-29T14:42:37;3.02;;;2.83;;
27303;SDS011;14791;52.392;13.092;2023-04-29T14:45:06;3.00;;;2.90;;
27303;SDS011;14791;52.392;13.092;2023-04-29T14:47:35;2.70;;;2.60;;
27303;SDS011;14791;52.392;13.092;2023-04-29T14:50:05;5.95;;;5.65;;
27303;SDS011;14791;52.392;13.092;2023-04-29T14:52:36;3.40;;;3.30;;
27303;SDS011;14791;52.392;13.092;2023-04-29T14:55:05;3.17;;;3.00;;
27303;SDS011;14791;52.392;13.092;2023-04-29T14:57:34;2.90;;;2.80;;